createdAt,value
2023-10-29T00:06:46.637Z,65
2023-10-29T00:16:55.422Z,65
2023-10-29T00:27:04.300Z,65
2023-10-29T00:37:13.096Z,66
2023-10-29T00:47:21.883Z,66
2023-10-29T00:57:30.681Z,67
2023-10-29T01:07:39.538Z,67
2023-10-29T01:17:48.342Z,66
2023-10-29T01:27:59.169Z,66
2023-10-29T01:38:05.775Z,67
2023-10-29T01:48:14.558Z,67
2023-10-29T01:58:23.190Z,67
2023-10-29T02:08:32.062Z,66
2023-10-29T02:18:42.033Z,65
2023-10-29T02:28:50.871Z,68
2023-10-29T02:38:59.666Z,66
2023-10-29T02:49:08.612Z,65
2023-10-29T02:59:17.282Z,66
2023-10-29T03:09:26.001Z,66
2023-10-29T03:19:34.750Z,66
2023-10-29T03:29:43.671Z,65
2023-10-29T03:39:52.389Z,65
2023-10-29T03:50:01.238Z,66
2023-10-29T04:00:09.975Z,65
2023-10-29T04:10:18.867Z,66
2023-10-29T04:20:27.602Z,66
2023-10-29T04:30:36.352Z,66
2023-10-29T04:40:44.970Z,66
2023-10-29T04:50:53.811Z,65
2023-10-29T05:01:02.578Z,65
2023-10-29T05:11:11.293Z,64
2023-10-29T05:21:20.072Z,65
2023-10-29T05:31:28.768Z,65
2023-10-29T05:41:37.589Z,66
2023-10-29T05:51:46.350Z,66
2023-10-29T06:01:55.038Z,66
2023-10-29T06:12:03.715Z,66
2023-10-29T06:22:12.393Z,66
2023-10-29T06:32:21.222Z,66
2023-10-29T06:42:36.061Z,66
2023-10-29T06:52:34.855Z,66
2023-10-29T07:02:43.571Z,66
2023-10-29T07:12:52.345Z,67
2023-10-29T07:23:01.134Z,66
2023-10-29T07:33:09.952Z,66
2023-10-29T07:43:18.697Z,66
2023-10-29T08:03:35.608Z,58
2023-10-29T08:13:45.480Z,58
2023-10-29T08:23:44.580Z,57
2023-10-29T08:33:53.377Z,53
2023-10-29T08:44:02.159Z,53
2023-10-29T08:54:10.991Z,52
2023-10-29T09:04:19.810Z,49
2023-10-29T09:14:28.536Z,48
2023-10-29T09:24:37.272Z,48
2023-10-29T09:34:46.230Z,50
2023-10-29T09:44:54.935Z,50
2023-10-29T09:55:03.757Z,51
2023-10-29T10:05:12.396Z,52
2023-10-29T10:15:21.169Z,50
2023-10-29T10:25:29.986Z,49
2023-10-29T10:35:38.743Z,51
2023-10-29T10:45:47.480Z,53
2023-10-29T10:56:02.929Z,52
2023-10-29T11:06:03.202Z,53
2023-10-29T11:16:11.982Z,52
2023-10-29T11:26:20.750Z,54
2023-10-29T11:36:29.386Z,55
2023-10-29T11:46:38.318Z,56
2023-10-29T11:56:47.309Z,56
2023-10-29T12:06:58.929Z,54
2023-10-29T12:16:58.977Z,53
2023-10-29T12:27:07.886Z,51
2023-10-29T12:37:16.788Z,51
2023-10-29T12:47:25.759Z,51
2023-10-29T12:57:34.361Z,54
2023-10-29T13:07:43.279Z,55
2023-10-29T13:17:52.108Z,56
2023-10-29T13:28:00.942Z,53
2023-10-29T13:38:09.782Z,50
2023-10-29T13:48:19.974Z,49
2023-10-29T13:58:18.846Z,50
2023-10-29T14:08:20.352Z,53
2023-10-29T14:18:27.377Z,54
2023-10-29T14:28:36.832Z,55
2023-10-29T14:38:45.612Z,55
2023-10-29T14:48:54.360Z,56
2023-10-29T14:59:03.198Z,57
2023-10-29T15:09:11.975Z,58
2023-10-29T15:19:30.233Z,58
2023-10-29T15:29:29.783Z,59
2023-10-29T15:39:39.595Z,61
2023-10-29T15:49:43.331Z,63
2023-10-29T15:59:44.249Z,64
2023-10-29T16:09:42.970Z,63
2023-10-29T16:19:51.692Z,63
2023-10-29T16:30:00.455Z,64
2023-10-29T16:40:09.310Z,63
2023-10-29T16:50:18.108Z,63
2023-10-29T17:00:26.917Z,63
2023-10-29T17:10:35.659Z,63
2023-10-29T17:20:44.513Z,62
2023-10-29T17:30:53.330Z,60
2023-10-29T17:41:02.059Z,60
2023-10-29T17:51:10.316Z,61
2023-10-29T18:01:19.069Z,61
2023-10-29T18:11:30.367Z,62
2023-10-29T18:21:29.277Z,62
2023-10-29T18:31:38.141Z,62
2023-10-29T18:41:46.837Z,63
2023-10-29T18:51:56.660Z,63
2023-10-29T19:01:57.661Z,63
2023-10-29T19:11:58.885Z,64
2023-10-29T19:22:09.277Z,65
2023-10-29T19:32:20.887Z,65
2023-10-29T19:42:10.057Z,66
2023-10-29T19:52:20.234Z,66
2023-10-29T20:02:20.269Z,66
2023-10-29T20:12:22.100Z,67
2023-10-29T20:22:24.928Z,67
2023-10-29T20:32:25.183Z,68
2023-10-29T20:42:34.764Z,69
2023-10-29T20:52:35.086Z,69
2023-10-29T21:02:34.650Z,69
2023-10-29T21:12:44.001Z,69
2023-10-29T21:22:52.818Z,69
2023-10-29T21:33:03.114Z,69
2023-10-29T21:43:02.119Z,70
2023-10-29T21:53:11.609Z,71
2023-10-29T22:03:20.405Z,71
2023-10-29T22:13:29.249Z,71
2023-10-29T22:23:39.214Z,72
2023-10-29T22:33:48.558Z,72
2023-10-29T22:43:57.641Z,72
2023-10-29T22:54:09.318Z,72
2023-10-29T23:04:08.140Z,73
2023-10-29T23:14:16.770Z,73
2023-10-29T23:24:26.169Z,73
2023-10-29T23:34:26.103Z,73
2023-10-29T23:44:35.980Z,73
2023-10-29T23:54:44.784Z,73
